createdAt,value
2023-03-02T00:01:03.097Z,1.24
2023-03-02T00:03:31.034Z,1.27
2023-03-02T00:05:59.423Z,1.26
2023-03-02T00:08:27.740Z,1.28
2023-03-02T00:10:56.608Z,1.26
2023-03-02T00:13:23.563Z,1.21
2023-03-02T00:15:50.187Z,1.20
2023-03-02T00:18:16.635Z,1.25
2023-03-02T00:20:43.204Z,1.22
2023-03-02T00:23:09.748Z,1.19
2023-03-02T00:25:36.409Z,1.18
2023-03-02T00:28:03.588Z,1.17
2023-03-02T00:30:30.198Z,1.13
2023-03-02T00:32:58.471Z,1.19
2023-03-02T00:35:27.103Z,1.21
2023-03-02T00:37:53.679Z,1.24
2023-03-02T00:40:20.543Z,1.23
2023-03-02T00:42:47.166Z,1.23
2023-03-02T00:45:13.699Z,1.25
2023-03-02T00:47:41.575Z,1.31
2023-03-02T00:50:09.515Z,1.28
2023-03-02T00:52:36.095Z,1.31
2023-03-02T00:55:02.695Z,1.29
2023-03-02T00:57:29.222Z,1.24
2023-03-02T00:59:55.751Z,1.23
2023-03-02T01:02:22.274Z,1.25
2023-03-02T01:04:49.439Z,1.26
2023-03-02T01:07:18.343Z,1.29
2023-03-02T01:09:45.901Z,1.25
2023-03-02T01:12:12.495Z,1.22
2023-03-02T01:14:42.575Z,1.26
2023-03-02T01:17:10.242Z,1.27
2023-03-02T01:19:37.235Z,1.25
2023-03-02T01:22:03.806Z,1.22
2023-03-02T01:24:30.561Z,1.23
2023-03-02T01:26:57.082Z,1.23
2023-03-02T01:29:23.782Z,1.22
2023-03-02T01:31:50.358Z,1.32
2023-03-02T01:34:16.979Z,1.30
2023-03-02T01:36:46.058Z,1.26
2023-03-02T01:39:16.415Z,1.26
2023-03-02T01:41:44.221Z,1.26
2023-03-02T01:44:37.086Z,1.26
2023-03-02T01:47:17.282Z,1.19
2023-03-02T01:49:47.530Z,1.20
2023-03-02T01:52:15.619Z,1.25
2023-03-02T01:54:42.842Z,1.26
2023-03-02T01:57:10.825Z,1.25
2023-03-02T01:59:39.312Z,1.26
2023-03-02T02:02:08.987Z,1.24
2023-03-02T02:04:39.753Z,1.24
2023-03-02T02:07:09.204Z,1.23
2023-03-02T02:09:40.600Z,1.24
2023-03-02T02:12:13.607Z,1.26
2023-03-02T02:14:41.161Z,1.23
2023-03-02T02:17:08.387Z,1.24
2023-03-02T02:20:07.312Z,1.18
2023-03-02T02:22:46.530Z,1.16
2023-03-02T02:25:42.389Z,1.20
2023-03-02T02:28:25.193Z,1.17
2023-03-02T02:31:13.555Z,1.15
2023-03-02T02:33:43.537Z,1.16
2023-03-02T02:36:23.729Z,1.11
2023-03-02T02:38:51.806Z,1.14
2023-03-02T02:41:22.552Z,1.14
2023-03-02T02:43:49.829Z,1.12
2023-03-02T02:46:16.662Z,1.18
2023-03-02T02:48:43.145Z,1.20
2023-03-02T02:51:17.920Z,1.28
2023-03-02T02:53:59.049Z,1.29
2023-03-02T02:56:32.359Z,1.29
2023-03-02T02:59:20.750Z,1.24
2023-03-02T03:01:49.175Z,1.23
2023-03-02T03:04:20.944Z,1.20
2023-03-02T03:06:54.265Z,1.18
2023-03-02T03:09:21.591Z,1.24
2023-03-02T03:11:57.038Z,1.18
2023-03-02T03:14:35.788Z,1.14
2023-03-02T03:17:02.719Z,1.16
2023-03-02T03:19:31.984Z,1.18
2023-03-02T03:22:01.315Z,1.15
2023-03-02T03:24:29.463Z,1.09
2023-03-02T03:26:56.239Z,1.16
2023-03-02T03:29:25.206Z,1.18
2023-03-02T03:31:53.712Z,1.11
2023-03-02T03:34:21.399Z,1.16
2023-03-02T03:36:47.991Z,1.11
2023-03-02T03:39:16.655Z,1.08
2023-03-02T03:41:43.560Z,1.05
2023-03-02T03:44:11.263Z,1.03
2023-03-02T03:46:38.023Z,1.01
2023-03-02T03:49:04.939Z,0.95
2023-03-02T03:51:35.244Z,0.99
2023-03-02T03:54:08.083Z,1.00
2023-03-02T03:56:39.287Z,0.98
2023-03-02T03:59:08.107Z,1.00
2023-03-02T04:01:46.227Z,0.95
2023-03-02T04:04:16.197Z,0.84
2023-03-02T04:06:43.106Z,0.82
2023-03-02T04:09:09.803Z,0.81
2023-03-02T04:11:39.269Z,0.76
2023-03-02T04:14:06.906Z,0.79
2023-03-02T04:16:33.745Z,0.77
2023-03-02T04:19:00.632Z,0.77
2023-03-02T04:21:27.912Z,0.82
2023-03-02T04:23:54.619Z,0.85
2023-03-02T04:26:21.183Z,0.87
2023-03-02T04:28:50.866Z,0.86
2023-03-02T04:31:17.932Z,0.88
2023-03-02T04:33:44.893Z,0.89
2023-03-02T04:36:11.491Z,0.90
2023-03-02T04:38:37.997Z,0.86
2023-03-02T04:41:04.816Z,0.88
2023-03-02T04:43:32.386Z,0.83
2023-03-02T04:45:59.337Z,0.83
2023-03-02T04:48:25.954Z,0.81
2023-03-02T04:50:52.629Z,0.76
2023-03-02T04:53:19.177Z,0.71
2023-03-02T04:55:45.883Z,0.69
2023-03-02T04:58:12.467Z,0.70
2023-03-02T05:00:39.284Z,0.69
2023-03-02T05:03:06.360Z,0.72
2023-03-02T05:05:33.542Z,0.74
2023-03-02T05:08:00.327Z,0.76
2023-03-02T05:10:27.846Z,0.70
2023-03-02T05:12:54.850Z,0.62
2023-03-02T05:15:23.041Z,0.66
2023-03-02T05:17:49.576Z,0.61
2023-03-02T05:20:16.643Z,0.65
2023-03-02T05:22:43.185Z,0.60
2023-03-02T05:25:10.009Z,0.56
2023-03-02T05:27:36.891Z,0.57
2023-03-02T05:30:07.248Z,0.50
2023-03-02T05:32:33.863Z,0.43
2023-03-02T05:35:00.503Z,0.41
2023-03-02T05:37:27.053Z,0.42
2023-03-02T05:39:53.561Z,0.46
2023-03-02T05:42:20.161Z,0.49
2023-03-02T05:44:46.803Z,0.47
2023-03-02T05:47:13.367Z,0.48
2023-03-02T05:49:39.897Z,0.51
2023-03-02T05:52:06.365Z,0.54
2023-03-02T05:54:32.893Z,0.53
2023-03-02T05:56:59.406Z,0.47
2023-03-02T05:59:25.881Z,0.49
2023-03-02T06:01:58.622Z,0.55
2023-03-02T06:04:26.165Z,0.53
2023-03-02T06:06:52.765Z,0.64
2023-03-02T06:09:19.318Z,0.65
2023-03-02T06:11:45.830Z,0.65
2023-03-02T06:14:12.393Z,0.68
2023-03-02T06:16:39.012Z,0.76
2023-03-02T06:19:05.589Z,0.87
2023-03-02T06:21:32.444Z,0.99
2023-03-02T06:23:58.996Z,1.18
2023-03-02T06:26:25.691Z,1.43
2023-03-02T06:28:53.928Z,1.67
2023-03-02T06:31:21.354Z,1.89
2023-03-02T06:33:47.947Z,2.11
2023-03-02T06:36:16.953Z,2.30
2023-03-02T06:38:43.591Z,2.43
2023-03-02T06:41:10.217Z,2.54
2023-03-02T06:43:36.823Z,2.62
2023-03-02T06:46:04.186Z,2.79
2023-03-02T06:48:30.751Z,2.97
2023-03-02T06:50:57.313Z,3.07
2023-03-02T06:53:23.868Z,3.29
2023-03-02T06:55:51.231Z,3.45
2023-03-02T06:58:17.984Z,3.55
2023-03-02T07:00:44.698Z,3.69
2023-03-02T07:03:11.521Z,3.79
2023-03-02T07:05:38.180Z,3.91
2023-03-02T07:08:05.039Z,3.93
2023-03-02T07:10:31.722Z,4.18
2023-03-02T07:12:58.232Z,4.37
2023-03-02T07:15:25.506Z,4.58
2023-03-02T07:17:52.136Z,4.64
2023-03-02T07:20:19.247Z,4.79
2023-03-02T07:22:46.116Z,4.94
2023-03-02T07:25:13.612Z,5.11
2023-03-02T07:27:40.579Z,5.24
2023-03-02T07:30:08.490Z,5.60
2023-03-02T07:32:35.305Z,5.88
2023-03-02T07:35:01.924Z,6.31
2023-03-02T07:37:28.453Z,6.56
2023-03-02T07:39:54.949Z,6.65
2023-03-02T07:42:21.494Z,7.11
2023-03-02T07:44:48.155Z,7.21
2023-03-02T07:47:14.734Z,7.41
2023-03-02T07:49:41.244Z,7.61
2023-03-02T07:52:07.828Z,7.85
2023-03-02T07:54:34.425Z,7.98
2023-03-02T07:57:00.978Z,8.23
2023-03-02T07:59:28.865Z,8.81
2023-03-02T08:01:56.649Z,8.95
2023-03-02T08:04:24.176Z,9.39
2023-03-02T08:06:50.766Z,9.86
2023-03-02T08:09:17.590Z,9.93
2023-03-02T08:11:44.966Z,10.74
2023-03-02T08:14:11.694Z,11.16
2023-03-02T08:16:39.564Z,11.35
2023-03-02T08:19:06.959Z,10.78
2023-03-02T08:21:33.855Z,10.80
2023-03-02T08:24:00.650Z,10.97
2023-03-02T08:26:27.260Z,10.95
2023-03-02T08:28:53.811Z,10.17
2023-03-02T08:31:20.447Z,10.51
2023-03-02T08:33:47.125Z,10.77
2023-03-02T08:36:16.897Z,11.04
2023-03-02T08:38:44.779Z,11.17
2023-03-02T08:41:14.378Z,10.72
2023-03-02T08:43:40.956Z,10.41
2023-03-02T08:46:07.816Z,10.27
2023-03-02T08:48:34.499Z,10.73
2023-03-02T08:51:07.195Z,10.72
2023-03-02T08:53:37.372Z,10.73
2023-03-02T08:56:07.280Z,10.42
2023-03-02T09:30:07.388Z,10.47
2023-03-02T09:32:34.069Z,10.68
2023-03-02T09:38:46.988Z,11.45
2023-03-02T10:08:15.249Z,13.41
2023-03-02T10:10:41.663Z,13.34
2023-03-02T10:58:20.073Z,18.24
2023-03-02T11:04:31.007Z,18.20
2023-03-02T11:07:27.947Z,18.01
2023-03-02T11:13:42.188Z,17.69
2023-03-02T11:20:00.477Z,17.68
2023-03-02T11:22:38.678Z,17.95
2023-03-02T11:25:17.906Z,17.39
2023-03-02T11:27:46.097Z,17.03
2023-03-02T11:30:19.526Z,17.87
2023-03-02T11:33:04.070Z,17.90
2023-03-02T11:35:37.148Z,18.03
2023-03-02T11:38:21.556Z,17.41
2023-03-02T11:41:13.957Z,18.17
2023-03-02T11:43:40.454Z,17.76
2023-03-02T11:46:21.577Z,18.46
2023-03-02T11:48:53.527Z,18.57
2023-03-02T11:51:25.830Z,19.44
2023-03-02T11:54:02.723Z,19.29
2023-03-02T11:56:32.009Z,20.44
2023-03-02T11:59:02.971Z,21.31
2023-03-02T12:01:29.831Z,23.31
2023-03-02T12:04:07.819Z,25.20
2023-03-02T12:06:38.718Z,25.62
2023-03-02T12:09:22.205Z,27.66
2023-03-02T12:11:56.949Z,28.66
2023-03-02T12:14:37.223Z,29.90
2023-03-02T12:17:22.204Z,29.85
2023-03-02T12:19:50.959Z,29.56
2023-03-02T12:22:31.274Z,29.36
2023-03-02T12:25:20.843Z,28.86
2023-03-02T12:27:50.116Z,28.89
2023-03-02T12:30:23.759Z,27.97
2023-03-02T12:33:10.210Z,28.86
2023-03-02T12:35:37.814Z,29.60
2023-03-02T12:38:14.371Z,29.13
2023-03-02T12:41:13.356Z,28.85
2023-03-02T12:44:07.209Z,27.38
2023-03-02T12:46:36.122Z,26.70
2023-03-02T12:49:09.611Z,25.75
2023-03-02T12:51:54.922Z,26.98
2023-03-02T12:54:36.468Z,28.63
2023-03-02T12:57:16.312Z,27.49
2023-03-02T12:59:53.564Z,26.89
2023-03-02T13:02:30.303Z,28.50
2023-03-02T13:04:59.440Z,29.33
2023-03-02T13:07:43.468Z,27.78
2023-03-02T13:10:27.352Z,27.19
2023-03-02T13:12:54.141Z,29.02
2023-03-02T13:15:28.254Z,28.13
2023-03-02T13:18:24.059Z,28.54
2023-03-02T13:20:55.697Z,30.26
2023-03-02T13:27:22.383Z,29.86
2023-03-02T13:29:57.777Z,29.52
2023-03-02T13:32:40.560Z,28.25
2023-03-02T13:39:45.020Z,27.79
2023-03-02T13:47:00.019Z,28.70
2023-03-02T13:49:37.004Z,28.62
2023-03-02T13:52:16.766Z,27.37
2023-03-02T13:54:51.272Z,28.66
2023-03-02T13:57:32.775Z,27.67
2023-03-02T14:00:00.208Z,28.84
2023-03-02T14:02:28.873Z,27.98
2023-03-02T14:05:44.808Z,26.80
2023-03-02T14:16:01.110Z,25.86
2023-03-02T14:18:43.144Z,26.47
2023-03-02T14:21:17.550Z,27.03
2023-03-02T14:23:44.834Z,25.52
2023-03-02T14:26:32.237Z,26.22
2023-03-02T14:29:31.547Z,25.54
2023-03-02T14:32:07.864Z,25.72
2023-03-02T14:34:37.416Z,25.66
2023-03-02T14:37:14.871Z,22.72
2023-03-02T14:39:47.686Z,20.81
2023-03-02T14:46:13.388Z,17.00
2023-03-02T14:48:46.080Z,16.11
2023-03-02T14:51:43.183Z,15.04
2023-03-02T14:54:34.303Z,14.55
2023-03-02T14:57:11.128Z,13.87
2023-03-02T14:59:37.656Z,13.26
2023-03-02T15:02:19.069Z,13.06
2023-03-02T15:04:55.025Z,12.88
2023-03-02T15:07:23.301Z,12.61
2023-03-02T15:09:49.877Z,12.45
2023-03-02T15:12:16.371Z,12.36
2023-03-02T15:14:42.870Z,12.21
2023-03-02T15:17:10.591Z,12.18
2023-03-02T15:19:37.080Z,12.17
2023-03-02T15:22:04.835Z,12.12
2023-03-02T15:24:33.256Z,11.95
2023-03-02T15:27:00.503Z,11.91
2023-03-02T15:29:27.016Z,11.75
2023-03-02T15:31:58.174Z,11.73
2023-03-02T15:34:27.110Z,11.68
2023-03-02T15:36:53.618Z,11.65
2023-03-02T15:39:20.180Z,11.58
2023-03-02T15:41:49.162Z,11.41
2023-03-02T15:44:24.172Z,11.33
2023-03-02T15:47:02.608Z,11.25
2023-03-02T15:49:33.379Z,11.21
2023-03-02T15:52:00.150Z,11.17
2023-03-02T15:54:35.838Z,11.08
2023-03-02T15:57:05.046Z,10.98
2023-03-02T15:59:31.985Z,10.91
2023-03-02T16:01:59.677Z,10.83
2023-03-02T16:04:27.150Z,10.74
2023-03-02T16:06:55.094Z,10.67
2023-03-02T16:09:28.295Z,10.62
2023-03-02T16:12:33.101Z,10.54
2023-03-02T16:15:10.814Z,10.45
2023-03-02T16:17:58.128Z,10.38
2023-03-02T16:20:40.627Z,10.30
2023-03-02T16:23:22.659Z,10.22
2023-03-02T16:25:52.348Z,10.15
2023-03-02T16:28:22.165Z,10.06
2023-03-02T16:30:49.327Z,9.97
2023-03-02T16:33:33.529Z,9.89
2023-03-02T16:36:00.143Z,9.81
2023-03-02T16:38:27.670Z,9.75
2023-03-02T16:40:57.130Z,9.65
2023-03-02T16:43:26.466Z,9.56
2023-03-02T16:46:15.898Z,9.47
2023-03-02T16:48:44.041Z,9.41
2023-03-02T16:51:11.349Z,9.31
2023-03-02T16:59:37.722Z,8.99
2023-03-02T17:02:04.638Z,8.90
2023-03-02T17:04:34.859Z,8.81
2023-03-02T17:07:01.776Z,8.74
2023-03-02T17:09:31.254Z,8.64
2023-03-02T17:11:59.288Z,8.56
2023-03-02T17:14:26.380Z,8.47
2023-03-02T17:16:53.924Z,8.41
2023-03-02T17:19:20.673Z,8.34
2023-03-02T17:21:47.286Z,8.29
2023-03-02T17:24:14.067Z,8.23
2023-03-02T17:26:40.998Z,8.15
2023-03-02T17:29:08.126Z,8.10
2023-03-02T17:31:34.723Z,8.05
2023-03-02T17:34:01.315Z,7.97
2023-03-02T17:36:27.979Z,7.89
2023-03-02T17:38:54.550Z,7.83
2023-03-02T17:41:21.167Z,7.74
2023-03-02T17:43:47.935Z,7.64
2023-03-02T17:46:20.763Z,7.57
2023-03-02T17:48:49.851Z,7.44
2023-03-02T17:51:17.368Z,7.34
2023-03-02T17:53:46.184Z,7.26
2023-03-02T17:56:15.706Z,7.23
2023-03-02T17:58:45.319Z,7.14
2023-03-02T18:02:13.286Z,7.07
2023-03-02T18:04:14.793Z,7.03
2023-03-02T18:06:44.021Z,6.97
2023-03-02T18:09:12.017Z,6.88
2023-03-02T18:11:38.623Z,6.79
2023-03-02T18:14:05.326Z,6.66
2023-03-02T18:16:36.490Z,6.54
2023-03-02T18:19:03.114Z,6.46
2023-03-02T18:21:29.889Z,6.36
2023-03-02T18:23:57.831Z,6.22
2023-03-02T18:29:05.874Z,6.06
2023-03-02T18:31:42.607Z,5.95
2023-03-02T18:34:11.547Z,5.82
2023-03-02T18:36:38.500Z,5.73
2023-03-02T18:39:08.112Z,5.60
2023-03-02T18:41:34.615Z,5.53
2023-03-02T18:44:01.457Z,5.40
2023-03-02T18:46:30.589Z,5.24
2023-03-02T18:48:57.941Z,5.09
2023-03-02T18:51:25.590Z,5.04
2023-03-02T18:53:55.262Z,4.95
2023-03-02T18:56:22.851Z,4.84
2023-03-02T18:58:51.495Z,4.77
2023-03-02T19:01:18.408Z,4.70
2023-03-02T19:03:47.959Z,4.65
2023-03-02T19:06:15.344Z,4.56
2023-03-02T19:08:42.223Z,4.52
2023-03-02T19:11:09.003Z,4.46
2023-03-02T19:13:35.632Z,4.38
2023-03-02T19:16:08.007Z,4.31
2023-03-02T19:18:35.355Z,4.20
2023-03-02T19:21:04.299Z,4.21
2023-03-02T19:23:35.003Z,4.16
2023-03-02T19:26:03.325Z,4.06
2023-03-02T19:28:29.992Z,4.00
2023-03-02T19:30:56.843Z,3.99
2023-03-02T19:33:24.784Z,3.98
2023-03-02T19:36:06.265Z,3.97
2023-03-02T19:38:53.980Z,3.97
2023-03-02T19:41:23.860Z,3.93
2023-03-02T19:43:53.726Z,3.98
2023-03-02T19:46:20.380Z,4.02
2023-03-02T19:48:47.810Z,4.03
2023-03-02T19:51:15.760Z,4.01
2023-03-02T19:53:43.827Z,3.97
2023-03-02T19:56:14.337Z,3.95
2023-03-02T19:58:47.606Z,3.94
2023-03-02T20:01:26.662Z,3.97
2023-03-02T20:04:08.467Z,4.09
2023-03-02T20:12:27.082Z,3.93
2023-03-02T20:14:54.372Z,3.79
2023-03-02T20:17:21.137Z,3.63
2023-03-02T20:19:49.379Z,3.48
2023-03-02T20:22:16.610Z,3.37
2023-03-02T20:24:43.534Z,3.25
2023-03-02T20:27:12.693Z,3.13
2023-03-02T20:29:43.206Z,3.00
2023-03-02T20:32:12.563Z,2.95
2023-03-02T20:34:41.332Z,2.89
2023-03-02T20:37:08.460Z,2.87
2023-03-02T20:39:38.257Z,2.86
2023-03-02T20:42:06.598Z,2.81
2023-03-02T20:44:34.382Z,2.72
2023-03-02T20:47:08.323Z,2.63
2023-03-02T20:49:37.293Z,2.53
2023-03-02T20:52:05.596Z,2.37
2023-03-02T20:54:36.324Z,2.25
2023-03-02T20:57:05.358Z,2.19
2023-03-02T20:59:32.883Z,2.17
2023-03-02T21:02:00.143Z,2.26
2023-03-02T21:04:26.793Z,2.30
2023-03-02T21:06:53.523Z,2.29
2023-03-02T21:09:20.772Z,2.28
2023-03-02T21:11:48.101Z,2.26
2023-03-02T21:14:15.320Z,2.22
2023-03-02T21:16:43.666Z,2.23
2023-03-02T21:19:14.497Z,2.21
2023-03-02T21:21:42.572Z,2.20
2023-03-02T21:24:18.387Z,2.28
2023-03-02T21:26:46.503Z,2.21
2023-03-02T21:29:14.041Z,2.20
2023-03-02T21:31:42.302Z,2.14
2023-03-02T21:34:08.860Z,2.17
2023-03-02T21:36:35.551Z,2.20
2023-03-02T21:39:03.155Z,2.15
2023-03-02T21:41:29.936Z,2.10
2023-03-02T21:43:56.590Z,2.04
2023-03-02T21:46:23.681Z,2.00
2023-03-02T21:48:51.714Z,1.94
2023-03-02T21:51:18.685Z,1.91
2023-03-02T21:53:45.247Z,1.88
2023-03-02T21:56:20.479Z,1.85
2023-03-02T21:58:52.720Z,1.86
2023-03-02T22:01:19.926Z,1.82
2023-03-02T22:03:46.602Z,1.80
2023-03-02T22:06:25.590Z,1.82
2023-03-02T22:08:52.825Z,1.81
2023-03-02T22:11:38.560Z,1.76
2023-03-02T22:14:14.332Z,1.76
2023-03-02T22:16:45.102Z,1.79
2023-03-02T22:19:29.406Z,1.77
2023-03-02T22:22:00.509Z,1.78
2023-03-02T22:24:29.416Z,1.76
2023-03-02T22:27:21.873Z,1.72
2023-03-02T22:29:49.680Z,1.70
2023-03-02T22:32:24.441Z,1.68
2023-03-02T22:34:54.111Z,1.65
2023-03-02T22:37:23.432Z,1.59
2023-03-02T22:39:53.379Z,1.55
2023-03-02T22:42:26.942Z,1.52
2023-03-02T22:45:07.160Z,1.51
2023-03-02T22:47:33.685Z,1.47
2023-03-02T22:50:19.037Z,1.45
2023-03-02T22:52:45.607Z,1.42
2023-03-02T22:55:34.303Z,1.40
2023-03-02T22:58:25.471Z,1.34
2023-03-02T23:00:52.469Z,1.32
2023-03-02T23:03:21.828Z,1.32
2023-03-02T23:05:51.764Z,1.26
2023-03-02T23:08:23.006Z,1.23
2023-03-02T23:10:51.605Z,1.23
2023-03-02T23:13:21.354Z,1.24
2023-03-02T23:15:48.632Z,1.19
2023-03-02T23:18:23.191Z,1.14
2023-03-02T23:20:53.414Z,1.12
2023-03-02T23:23:22.064Z,1.13
2023-03-02T23:25:48.946Z,1.12
2023-03-02T23:28:15.510Z,1.09
2023-03-02T23:30:42.312Z,1.07
2023-03-02T23:33:09.099Z,1.03
2023-03-02T23:35:35.704Z,1.02
2023-03-02T23:38:02.280Z,1.08
2023-03-02T23:40:29.120Z,1.03
2023-03-02T23:42:56.084Z,1.01
2023-03-02T23:45:22.970Z,0.97
2023-03-02T23:47:49.585Z,0.94
2023-03-02T23:50:16.096Z,0.90
2023-03-02T23:52:42.627Z,0.89
2023-03-02T23:55:09.771Z,0.87
2023-03-02T23:57:36.310Z,0.88
